sensor_id;sensor_type;location;lat;lon;timestamp;temperature;humidity
21121;DHT22;12519;43.318;21.898;2022-08-02T00:01:19;25.8;68.0
21121;DHT22;12519;43.318;21.898;2022-08-02T00:05:56;25.8;68.0
21121;DHT22;12519;43.318;21.898;2022-08-02T00:10:32;25.7;68.0
21121;DHT22;12519;43.318;21.898;2022-08-02T00:15:10;25.7;68.0
21121;DHT22;12519;43.318;21.898;2022-08-02T00:19:46;25.6;68.0
21121;DHT22;12519;43.318;21.898;2022-08-02T00:24:23;25.6;68.0
21121;DHT22;12519;43.318;21.898;2022-08-02T00:29:00;25.6;68.0
21121;DHT22;12519;43.318;21.898;2022-08-02T00:33:36;25.6;68.0
21121;DHT22;12519;43.318;21.898;2022-08-02T00:38:14;25.6;68.0
21121;DHT22;12519;43.318;21.898;2022-08-02T00:43:06;25.6;68.0
21121;DHT22;12519;43.318;21.898;2022-08-02T00:47:46;25.6;68.0
21121;DHT22;12519;43.318;21.898;2022-08-02T00:52:24;25.6;68.0
21121;DHT22;12519;43.318;21.898;2022-08-02T00:57:01;25.6;68.0
21121;DHT22;12519;43.318;21.898;2022-08-02T01:01:37;25.6;68.0
21121;DHT22;12519;43.318;21.898;2022-08-02T01:06:13;25.6;68.0
21121;DHT22;12519;43.318;21.898;2022-08-02T01:10:51;25.5;68.0
21121;DHT22;12519;43.318;21.898;2022-08-02T01:15:28;25.5;68.0
21121;DHT22;12519;43.318;21.898;2022-08-02T01:21:07;25.3;68.0
21121;DHT22;12519;43.318;21.898;2022-08-02T01:26:46;25.3;68.0
21121;DHT22;12519;43.318;21.898;2022-08-02T01:31:43;25.2;68.0
21121;DHT22;12519;43.318;21.898;2022-08-02T01:36:57;25.2;68.0
21121;DHT22;12519;43.318;21.898;2022-08-02T01:41:59;25.1;69.0
21121;DHT22;12519;43.318;21.898;2022-08-02T01:46:45;25.1;69.0
21121;DHT22;12519;43.318;21.898;2022-08-02T01:51:40;25.1;69.0
21121;DHT22;12519;43.318;21.898;2022-08-02T01:56:28;25.1;69.0
21121;DHT22;12519;43.318;21.898;2022-08-02T02:01:13;25.1;69.0
21121;DHT22;12519;43.318;21.898;2022-08-02T02:06:08;25.1;69.0
21121;DHT22;12519;43.318;21.898;2022-08-02T02:10:56;25.0;69.0
21121;DHT22;12519;43.318;21.898;2022-08-02T02:15:49;25.0;69.0
21121;DHT22;12519;43.318;21.898;2022-08-02T02:20:42;25.0;69.0
21121;DHT22;12519;43.318;21.898;2022-08-02T02:25:22;25.0;69.0
21121;DHT22;12519;43.318;21.898;2022-08-02T02:30:04;25.0;69.0
21121;DHT22;12519;43.318;21.898;2022-08-02T02:34:52;25.0;69.0
21121;DHT22;12519;43.318;21.898;2022-08-02T02:39:45;24.9;69.0
21121;DHT22;12519;43.318;21.898;2022-08-02T02:44:37;24.9;69.0
21121;DHT22;12519;43.318;21.898;2022-08-02T02:49:22;24.5;70.0
21121;DHT22;12519;43.318;21.898;2022-08-02T02:54:03;24.5;70.0
21121;DHT22;12519;43.318;21.898;2022-08-02T02:58:47;24.5;70.0
21121;DHT22;12519;43.318;21.898;2022-08-02T03:03:25;24.2;70.0
21121;DHT22;12519;43.318;21.898;2022-08-02T03:08:04;24.2;70.0
21121;DHT22;12519;43.318;21.898;2022-08-02T03:12:41;24.2;71.0
21121;DHT22;12519;43.318;21.898;2022-08-02T03:17:17;24.2;71.0
21121;DHT22;12519;43.318;21.898;2022-08-02T03:21:54;24.1;71.0
21121;DHT22;12519;43.318;21.898;2022-08-02T03:26:31;24.1;71.0
21121;DHT22;12519;43.318;21.898;2022-08-02T03:31:08;24.4;70.0
21121;DHT22;12519;43.318;21.898;2022-08-02T03:35:51;24.4;70.0
21121;DHT22;12519;43.318;21.898;2022-08-02T03:40:38;24.7;70.0
21121;DHT22;12519;43.318;21.898;2022-08-02T03:45:21;24.7;70.0
21121;DHT22;12519;43.318;21.898;2022-08-02T03:50:01;24.2;70.0
21121;DHT22;12519;43.318;21.898;2022-08-02T03:54:39;24.2;70.0
21121;DHT22;12519;43.318;21.898;2022-08-02T03:59:16;23.6;70.0
21121;DHT22;12519;43.318;21.898;2022-08-02T04:03:53;23.6;70.0
21121;DHT22;12519;43.318;21.898;2022-08-02T04:08:30;23.6;70.0
21121;DHT22;12519;43.318;21.898;2022-08-02T04:13:08;23.1;71.0
21121;DHT22;12519;43.318;21.898;2022-08-02T04:17:55;23.1;71.0
21121;DHT22;12519;43.318;21.898;2022-08-02T04:22:55;22.6;72.0
21121;DHT22;12519;43.318;21.898;2022-08-02T04:27:46;22.6;72.0
21121;DHT22;12519;43.318;21.898;2022-08-02T04:32:27;22.3;73.0
21121;DHT22;12519;43.318;21.898;2022-08-02T04:37:12;22.3;73.0
21121;DHT22;12519;43.318;21.898;2022-08-02T04:41:51;22.0;73.0
21121;DHT22;12519;43.318;21.898;2022-08-02T04:46:32;22.0;73.0
21121;DHT22;12519;43.318;21.898;2022-08-02T04:51:13;21.8;74.0
21121;DHT22;12519;43.318;21.898;2022-08-02T04:55:51;21.8;74.0
21121;DHT22;12519;43.318;21.898;2022-08-02T05:00:30;21.6;75.0
21121;DHT22;12519;43.318;21.898;2022-08-02T05:05:08;21.6;75.0
21121;DHT22;12519;43.318;21.898;2022-08-02T05:09:45;21.6;75.0
21121;DHT22;12519;43.318;21.898;2022-08-02T05:14:22;21.6;75.0
21121;DHT22;12519;43.318;21.898;2022-08-02T05:19:00;21.6;75.0
21121;DHT22;12519;43.318;21.898;2022-08-02T05:23:38;21.7;75.0
21121;DHT22;12519;43.318;21.898;2022-08-02T05:28:16;21.7;75.0
21121;DHT22;12519;43.318;21.898;2022-08-02T05:32:52;22.5;74.0
21121;DHT22;12519;43.318;21.898;2022-08-02T05:37:29;22.5;74.0
21121;DHT22;12519;43.318;21.898;2022-08-02T05:42:06;23.3;73.0
21121;DHT22;12519;43.318;21.898;2022-08-02T05:46:42;23.3;73.0
21121;DHT22;12519;43.318;21.898;2022-08-02T05:51:38;23.8;72.0
21121;DHT22;12519;43.318;21.898;2022-08-02T05:56:37;23.8;72.0
21121;DHT22;12519;43.318;21.898;2022-08-02T06:01:37;24.4;71.0
21121;DHT22;12519;43.318;21.898;2022-08-02T06:06:25;24.4;71.0
21121;DHT22;12519;43.318;21.898;2022-08-02T06:11:19;24.0;71.0
21121;DHT22;12519;43.318;21.898;2022-08-02T06:16:05;24.0;71.0
21121;DHT22;12519;43.318;21.898;2022-08-02T06:20:49;23.7;71.0
21121;DHT22;12519;43.318;21.898;2022-08-02T06:25:30;23.7;71.0
21121;DHT22;12519;43.318;21.898;2022-08-02T06:30:11;24.0;71.0
21121;DHT22;12519;43.318;21.898;2022-08-02T06:34:48;24.0;71.0
21121;DHT22;12519;43.318;21.898;2022-08-02T06:39:47;24.3;71.0
21121;DHT22;12519;43.318;21.898;2022-08-02T06:44:34;24.3;71.0
21121;DHT22;12519;43.318;21.898;2022-08-02T06:49:10;24.3;71.0
21121;DHT22;12519;43.318;21.898;2022-08-02T06:53:48;24.6;70.0
21121;DHT22;12519;43.318;21.898;2022-08-02T06:58:25;24.6;70.0
21121;DHT22;12519;43.318;21.898;2022-08-02T07:03:03;24.9;70.0
21121;DHT22;12519;43.318;21.898;2022-08-02T07:07:41;24.9;70.0
21121;DHT22;12519;43.318;21.898;2022-08-02T07:12:17;24.8;70.0
21121;DHT22;12519;43.318;21.898;2022-08-02T07:16:55;24.8;70.0
21121;DHT22;12519;43.318;21.898;2022-08-02T07:21:33;24.8;70.0
21121;DHT22;12519;43.318;21.898;2022-08-02T07:26:09;24.8;70.0
21121;DHT22;12519;43.318;21.898;2022-08-02T07:30:47;25.1;69.0
21121;DHT22;12519;43.318;21.898;2022-08-02T07:35:24;25.1;69.0
21121;DHT22;12519;43.318;21.898;2022-08-02T07:40:02;25.4;69.0
21121;DHT22;12519;43.318;21.898;2022-08-02T07:44:40;25.4;69.0
21121;DHT22;12519;43.318;21.898;2022-08-02T07:49:16;25.4;69.0
21121;DHT22;12519;43.318;21.898;2022-08-02T07:53:52;25.8;68.0
21121;DHT22;12519;43.318;21.898;2022-08-02T07:58:29;25.8;68.0
21121;DHT22;12519;43.318;21.898;2022-08-02T08:03:05;26.2;68.0
21121;DHT22;12519;43.318;21.898;2022-08-02T08:07:41;26.2;68.0
21121;DHT22;12519;43.318;21.898;2022-08-02T08:12:18;26.3;67.0
21121;DHT22;12519;43.318;21.898;2022-08-02T08:16:55;26.3;67.0
21121;DHT22;12519;43.318;21.898;2022-08-02T08:21:31;26.4;67.0
21121;DHT22;12519;43.318;21.898;2022-08-02T08:26:07;26.4;67.0
21121;DHT22;12519;43.318;21.898;2022-08-02T08:30:44;26.4;66.0
21121;DHT22;12519;43.318;21.898;2022-08-02T08:35:21;26.4;66.0
21121;DHT22;12519;43.318;21.898;2022-08-02T08:39:57;26.4;66.0
21121;DHT22;12519;43.318;21.898;2022-08-02T08:44:34;26.4;66.0
21121;DHT22;12519;43.318;21.898;2022-08-02T08:49:25;26.4;66.0
21121;DHT22;12519;43.318;21.898;2022-08-02T08:54:15;26.5;66.0
21121;DHT22;12519;43.318;21.898;2022-08-02T08:58:54;26.5;66.0
21121;DHT22;12519;43.318;21.898;2022-08-02T09:03:31;26.6;66.0
21121;DHT22;12519;43.318;21.898;2022-08-02T09:08:08;26.6;66.0
21121;DHT22;12519;43.318;21.898;2022-08-02T09:12:44;26.8;66.0
21121;DHT22;12519;43.318;21.898;2022-08-02T09:17:20;26.8;66.0
21121;DHT22;12519;43.318;21.898;2022-08-02T09:22:04;26.9;66.0
21121;DHT22;12519;43.318;21.898;2022-08-02T09:26:47;26.9;66.0
21121;DHT22;12519;43.318;21.898;2022-08-02T09:31:27;27.0;65.0
21121;DHT22;12519;43.318;21.898;2022-08-02T09:36:09;27.0;65.0
21121;DHT22;12519;43.318;21.898;2022-08-02T09:40:50;27.2;64.0
21121;DHT22;12519;43.318;21.898;2022-08-02T09:45:31;27.2;64.0
21121;DHT22;12519;43.318;21.898;2022-08-02T09:50:11;27.4;64.0
21121;DHT22;12519;43.318;21.898;2022-08-02T09:54:48;27.4;64.0
21121;DHT22;12519;43.318;21.898;2022-08-02T09:59:28;27.4;64.0
21121;DHT22;12519;43.318;21.898;2022-08-02T10:04:11;27.5;64.0
21121;DHT22;12519;43.318;21.898;2022-08-02T10:08:56;27.5;64.0
21121;DHT22;12519;43.318;21.898;2022-08-02T10:13:35;27.6;63.0
21121;DHT22;12519;43.318;21.898;2022-08-02T10:18:12;27.6;63.0
21121;DHT22;12519;43.318;21.898;2022-08-02T10:22:52;27.6;63.0
21121;DHT22;12519;43.318;21.898;2022-08-02T10:27:38;27.6;63.0
21121;DHT22;12519;43.318;21.898;2022-08-02T10:32:28;27.8;63.0
21121;DHT22;12519;43.318;21.898;2022-08-02T10:37:30;27.8;63.0
21121;DHT22;12519;43.318;21.898;2022-08-02T10:42:46;28.0;62.0
21121;DHT22;12519;43.318;21.898;2022-08-02T10:47:29;28.0;62.0
21121;DHT22;12519;43.318;21.898;2022-08-02T10:52:08;28.2;62.0
21121;DHT22;12519;43.318;21.898;2022-08-02T10:56:47;28.2;62.0
21121;DHT22;12519;43.318;21.898;2022-08-02T11:01:30;28.3;62.0
21121;DHT22;12519;43.318;21.898;2022-08-02T11:06:17;28.3;62.0
21121;DHT22;12519;43.318;21.898;2022-08-02T11:10:58;28.4;62.0
21121;DHT22;12519;43.318;21.898;2022-08-02T11:15:58;28.4;62.0
21121;DHT22;12519;43.318;21.898;2022-08-02T11:20:38;28.5;62.0
21121;DHT22;12519;43.318;21.898;2022-08-02T11:25:32;28.5;62.0
21121;DHT22;12519;43.318;21.898;2022-08-02T11:30:12;28.6;61.0
21121;DHT22;12519;43.318;21.898;2022-08-02T11:34:53;28.6;61.0
21121;DHT22;12519;43.318;21.898;2022-08-02T11:39:29;28.6;61.0
21121;DHT22;12519;43.318;21.898;2022-08-02T11:44:06;28.8;61.0
21121;DHT22;12519;43.318;21.898;2022-08-02T11:48:42;28.8;61.0
21121;DHT22;12519;43.318;21.898;2022-08-02T11:53:18;29.0;60.0
21121;DHT22;12519;43.318;21.898;2022-08-02T11:57:57;29.0;60.0
21121;DHT22;12519;43.318;21.898;2022-08-02T12:02:34;29.1;60.0
21121;DHT22;12519;43.318;21.898;2022-08-02T12:07:10;29.1;60.0
21121;DHT22;12519;43.318;21.898;2022-08-02T12:11:48;29.0;60.0
21121;DHT22;12519;43.318;21.898;2022-08-02T12:16:35;29.0;60.0
21121;DHT22;12519;43.318;21.898;2022-08-02T12:21:25;29.0;60.0
21121;DHT22;12519;43.318;21.898;2022-08-02T12:26:04;29.0;60.0
21121;DHT22;12519;43.318;21.898;2022-08-02T12:30:56;29.2;60.0
21121;DHT22;12519;43.318;21.898;2022-08-02T12:35:35;29.2;60.0
21121;DHT22;12519;43.318;21.898;2022-08-02T12:40:23;29.3;59.0
21121;DHT22;12519;43.318;21.898;2022-08-02T12:45:08;29.3;59.0
21121;DHT22;12519;43.318;21.898;2022-08-02T12:49:45;29.3;59.0
21121;DHT22;12519;43.318;21.898;2022-08-02T12:54:49;29.4;59.0
21121;DHT22;12519;43.318;21.898;2022-08-02T12:59:39;29.4;59.0
21121;DHT22;12519;43.318;21.898;2022-08-02T13:04:28;29.6;58.0
21121;DHT22;12519;43.318;21.898;2022-08-02T13:09:15;29.6;58.0
21121;DHT22;12519;43.318;21.898;2022-08-02T13:13:53;29.6;59.0
21121;DHT22;12519;43.318;21.898;2022-08-02T13:18:31;29.6;59.0
21121;DHT22;12519;43.318;21.898;2022-08-02T13:23:09;29.6;59.0
21121;DHT22;12519;43.318;21.898;2022-08-02T13:27:46;29.6;59.0
21121;DHT22;12519;43.318;21.898;2022-08-02T13:32:25;29.6;59.0
21121;DHT22;12519;43.318;21.898;2022-08-02T13:37:03;29.6;59.0
21121;DHT22;12519;43.318;21.898;2022-08-02T13:41:40;29.7;58.0
21121;DHT22;12519;43.318;21.898;2022-08-02T13:46:17;29.7;58.0
21121;DHT22;12519;43.318;21.898;2022-08-02T13:50:54;29.6;58.0
21121;DHT22;12519;43.318;21.898;2022-08-02T13:55:30;29.6;58.0
21121;DHT22;12519;43.318;21.898;2022-08-02T14:00:10;29.6;59.0
21121;DHT22;12519;43.318;21.898;2022-08-02T14:04:49;29.6;59.0
21121;DHT22;12519;43.318;21.898;2022-08-02T14:09:26;29.6;59.0
21121;DHT22;12519;43.318;21.898;2022-08-02T14:14:03;29.5;58.0
21121;DHT22;12519;43.318;21.898;2022-08-02T14:18:39;29.5;58.0
21121;DHT22;12519;43.318;21.898;2022-08-02T14:23:15;29.4;58.0
21121;DHT22;12519;43.318;21.898;2022-08-02T14:27:52;29.4;58.0
21121;DHT22;12519;43.318;21.898;2022-08-02T14:32:28;29.5;58.0
21121;DHT22;12519;43.318;21.898;2022-08-02T14:37:04;29.5;58.0
21121;DHT22;12519;43.318;21.898;2022-08-02T14:41:40;29.6;58.0
21121;DHT22;12519;43.318;21.898;2022-08-02T14:46:17;29.6;58.0
21121;DHT22;12519;43.318;21.898;2022-08-02T14:50:53;29.5;58.0
21121;DHT22;12519;43.318;21.898;2022-08-02T14:55:30;29.5;58.0
21121;DHT22;12519;43.318;21.898;2022-08-02T15:00:09;29.5;58.0
21121;DHT22;12519;43.318;21.898;2022-08-02T15:04:48;29.4;58.0
21121;DHT22;12519;43.318;21.898;2022-08-02T15:09:24;29.4;58.0
21121;DHT22;12519;43.318;21.898;2022-08-02T15:14:00;29.6;58.0
21121;DHT22;12519;43.318;21.898;2022-08-02T15:18:37;29.6;58.0
21121;DHT22;12519;43.318;21.898;2022-08-02T15:23:14;29.7;58.0
21121;DHT22;12519;43.318;21.898;2022-08-02T15:27:52;29.7;58.0
21121;DHT22;12519;43.318;21.898;2022-08-02T15:32:28;29.7;58.0
21121;DHT22;12519;43.318;21.898;2022-08-02T15:37:05;29.7;58.0
21121;DHT22;12519;43.318;21.898;2022-08-02T15:50:56;29.7;57.0
21121;DHT22;12519;43.318;21.898;2022-08-02T15:55:34;29.7;57.0
21121;DHT22;12519;43.318;21.898;2022-08-02T16:00:15;29.7;57.0
21121;DHT22;12519;43.318;21.898;2022-08-02T16:04:51;29.7;57.0
21121;DHT22;12519;43.318;21.898;2022-08-02T16:09:28;29.7;57.0
21121;DHT22;12519;43.318;21.898;2022-08-02T16:14:06;29.8;57.0
21121;DHT22;12519;43.318;21.898;2022-08-02T16:18:43;29.8;57.0
21121;DHT22;12519;43.318;21.898;2022-08-02T16:23:19;29.8;57.0
21121;DHT22;12519;43.318;21.898;2022-08-02T16:27:56;29.8;57.0
21121;DHT22;12519;43.318;21.898;2022-08-02T16:32:32;29.7;57.0
21121;DHT22;12519;43.318;21.898;2022-08-02T16:37:09;29.7;57.0
21121;DHT22;12519;43.318;21.898;2022-08-02T16:41:46;29.6;57.0
21121;DHT22;12519;43.318;21.898;2022-08-02T16:46:22;29.6;57.0
21121;DHT22;12519;43.318;21.898;2022-08-02T16:50:59;29.4;57.0
21121;DHT22;12519;43.318;21.898;2022-08-02T16:55:36;29.4;57.0
21121;DHT22;12519;43.318;21.898;2022-08-02T17:00:14;29.4;57.0
21121;DHT22;12519;43.318;21.898;2022-08-02T17:04:50;29.3;58.0
21121;DHT22;12519;43.318;21.898;2022-08-02T17:09:26;29.3;58.0
21121;DHT22;12519;43.318;21.898;2022-08-02T17:14:02;29.2;58.0
21121;DHT22;12519;43.318;21.898;2022-08-02T17:18:38;29.2;58.0
21121;DHT22;12519;43.318;21.898;2022-08-02T17:23:15;29.0;58.0
21121;DHT22;12519;43.318;21.898;2022-08-02T17:27:52;29.0;58.0
21121;DHT22;12519;43.318;21.898;2022-08-02T17:32:29;28.9;59.0
21121;DHT22;12519;43.318;21.898;2022-08-02T17:37:05;28.9;59.0
21121;DHT22;12519;43.318;21.898;2022-08-02T17:41:42;28.8;59.0
21121;DHT22;12519;43.318;21.898;2022-08-02T17:46:19;28.8;59.0
21121;DHT22;12519;43.318;21.898;2022-08-02T17:50:55;28.7;59.0
21121;DHT22;12519;43.318;21.898;2022-08-02T17:55:32;28.7;59.0
21121;DHT22;12519;43.318;21.898;2022-08-02T18:00:12;28.7;59.0
21121;DHT22;12519;43.318;21.898;2022-08-02T18:04:53;28.6;60.0
21121;DHT22;12519;43.318;21.898;2022-08-02T18:09:31;28.6;60.0
21121;DHT22;12519;43.318;21.898;2022-08-02T18:14:08;28.4;60.0
21121;DHT22;12519;43.318;21.898;2022-08-02T18:18:49;28.4;60.0
21121;DHT22;12519;43.318;21.898;2022-08-02T18:23:26;28.3;60.0
21121;DHT22;12519;43.318;21.898;2022-08-02T18:28:04;28.3;60.0
21121;DHT22;12519;43.318;21.898;2022-08-02T18:32:41;28.2;60.0
21121;DHT22;12519;43.318;21.898;2022-08-02T18:37:17;28.2;60.0
21121;DHT22;12519;43.318;21.898;2022-08-02T18:41:54;28.1;61.0
21121;DHT22;12519;43.318;21.898;2022-08-02T18:46:31;28.1;61.0
21121;DHT22;12519;43.318;21.898;2022-08-02T18:51:09;28.1;61.0
21121;DHT22;12519;43.318;21.898;2022-08-02T18:55:46;28.1;61.0
21121;DHT22;12519;43.318;21.898;2022-08-02T19:00:24;28.1;61.0
21121;DHT22;12519;43.318;21.898;2022-08-02T19:14:12;27.7;62.0
21121;DHT22;12519;43.318;21.898;2022-08-02T19:18:49;27.7;62.0
21121;DHT22;12519;43.318;21.898;2022-08-02T19:23:25;27.7;62.0
21121;DHT22;12519;43.318;21.898;2022-08-02T19:28:02;27.7;62.0
21121;DHT22;12519;43.318;21.898;2022-08-02T19:32:38;27.6;62.0
21121;DHT22;12519;43.318;21.898;2022-08-02T19:37:14;27.6;62.0
21121;DHT22;12519;43.318;21.898;2022-08-02T19:41:50;27.5;63.0
21121;DHT22;12519;43.318;21.898;2022-08-02T19:46:27;27.5;63.0
21121;DHT22;12519;43.318;21.898;2022-08-02T19:51:03;27.4;63.0
21121;DHT22;12519;43.318;21.898;2022-08-02T19:55:39;27.4;63.0
21121;DHT22;12519;43.318;21.898;2022-08-02T20:00:16;27.4;63.0
21121;DHT22;12519;43.318;21.898;2022-08-02T20:04:53;27.3;63.0
21121;DHT22;12519;43.318;21.898;2022-08-02T20:09:29;27.3;63.0
21121;DHT22;12519;43.318;21.898;2022-08-02T20:14:06;27.2;63.0
21121;DHT22;12519;43.318;21.898;2022-08-02T20:18:43;27.2;63.0
21121;DHT22;12519;43.318;21.898;2022-08-02T20:23:19;27.2;63.0
21121;DHT22;12519;43.318;21.898;2022-08-02T20:27:56;27.2;63.0
21121;DHT22;12519;43.318;21.898;2022-08-02T20:32:32;27.0;64.0
21121;DHT22;12519;43.318;21.898;2022-08-02T20:37:09;27.0;64.0
21121;DHT22;12519;43.318;21.898;2022-08-02T20:41:46;26.9;65.0
21121;DHT22;12519;43.318;21.898;2022-08-02T20:46:24;26.9;65.0
21121;DHT22;12519;43.318;21.898;2022-08-02T20:51:00;26.7;66.0
21121;DHT22;12519;43.318;21.898;2022-08-02T20:55:44;26.7;66.0
21121;DHT22;12519;43.318;21.898;2022-08-02T21:00:30;26.7;66.0
21121;DHT22;12519;43.318;21.898;2022-08-02T21:05:08;26.5;67.0
21121;DHT22;12519;43.318;21.898;2022-08-02T21:09:45;26.5;67.0
21121;DHT22;12519;43.318;21.898;2022-08-02T21:14:23;26.4;67.0
21121;DHT22;12519;43.318;21.898;2022-08-02T21:18:59;26.4;67.0
21121;DHT22;12519;43.318;21.898;2022-08-02T21:23:36;26.4;68.0
21121;DHT22;12519;43.318;21.898;2022-08-02T21:28:13;26.4;68.0
21121;DHT22;12519;43.318;21.898;2022-08-02T21:32:49;26.2;68.0
21121;DHT22;12519;43.318;21.898;2022-08-02T21:37:26;26.2;68.0
21121;DHT22;12519;43.318;21.898;2022-08-02T21:42:03;26.0;68.0
21121;DHT22;12519;43.318;21.898;2022-08-02T21:46:39;26.0;68.0
21121;DHT22;12519;43.318;21.898;2022-08-02T21:51:15;26.0;69.0
21121;DHT22;12519;43.318;21.898;2022-08-02T21:55:51;26.0;69.0
21121;DHT22;12519;43.318;21.898;2022-08-02T22:00:27;26.0;69.0
21121;DHT22;12519;43.318;21.898;2022-08-02T22:05:05;26.1;69.0
21121;DHT22;12519;43.318;21.898;2022-08-02T22:09:43;26.1;69.0
21121;DHT22;12519;43.318;21.898;2022-08-02T22:14:20;26.2;69.0
21121;DHT22;12519;43.318;21.898;2022-08-02T22:18:56;26.2;69.0
21121;DHT22;12519;43.318;21.898;2022-08-02T22:23:32;26.4;69.0
21121;DHT22;12519;43.318;21.898;2022-08-02T22:28:13;26.4;69.0
21121;DHT22;12519;43.318;21.898;2022-08-02T22:32:52;26.4;69.0
21121;DHT22;12519;43.318;21.898;2022-08-02T22:37:29;26.4;69.0
21121;DHT22;12519;43.318;21.898;2022-08-02T22:42:05;26.4;69.0
21121;DHT22;12519;43.318;21.898;2022-08-02T22:46:41;26.4;69.0
21121;DHT22;12519;43.318;21.898;2022-08-02T22:51:18;26.4;69.0
21121;DHT22;12519;43.318;21.898;2022-08-02T22:55:55;26.4;69.0
21121;DHT22;12519;43.318;21.898;2022-08-02T23:00:31;26.4;69.0
21121;DHT22;12519;43.318;21.898;2022-08-02T23:05:08;26.3;69.0
21121;DHT22;12519;43.318;21.898;2022-08-02T23:09:44;26.3;69.0
21121;DHT22;12519;43.318;21.898;2022-08-02T23:14:20;26.2;69.0
21121;DHT22;12519;43.318;21.898;2022-08-02T23:18:57;26.2;69.0
21121;DHT22;12519;43.318;21.898;2022-08-02T23:23:34;26.2;69.0
21121;DHT22;12519;43.318;21.898;2022-08-02T23:28:11;26.2;69.0
21121;DHT22;12519;43.318;21.898;2022-08-02T23:32:47;26.2;70.0
21121;DHT22;12519;43.318;21.898;2022-08-02T23:37:24;26.2;70.0
21121;DHT22;12519;43.318;21.898;2022-08-02T23:42:03;26.1;70.0
21121;DHT22;12519;43.318;21.898;2022-08-02T23:46:41;26.1;70.0
21121;DHT22;12519;43.318;21.898;2022-08-02T23:51:21;26.0;70.0
21121;DHT22;12519;43.318;21.898;2022-08-02T23:55:57;26.0;70.0
